createdAt,value
2022-08-23T00:02:10.145Z,22.41
2022-08-23T00:05:04.186Z,22.30
2022-08-23T00:07:44.223Z,22.40
2022-08-23T00:10:15.966Z,22.28
2022-08-23T00:12:45.415Z,22.22
2022-08-23T00:15:16.441Z,22.20
2022-08-23T00:17:44.183Z,22.12
2022-08-23T00:20:15.997Z,22.21
2022-08-23T00:22:43.939Z,22.06
2022-08-23T00:25:13.872Z,22.16
2022-08-23T00:27:41.911Z,22.06
2022-08-23T00:30:12.646Z,22.15
2022-08-23T00:32:41.535Z,22.09
2022-08-23T00:35:11.549Z,22.11
2022-08-23T00:37:40.092Z,22.05
2022-08-23T00:40:10.079Z,22.12
2022-08-23T00:43:25.260Z,22.42
2022-08-23T00:46:28.260Z,22.23
2022-08-23T00:48:56.520Z,22.10
2022-08-23T00:51:43.026Z,22.18
2022-08-23T00:54:24.687Z,22.05
2022-08-23T00:56:55.041Z,21.98
2022-08-23T00:59:23.377Z,21.88
2022-08-23T01:01:51.595Z,21.89
2022-08-23T01:04:20.150Z,21.87
2022-08-23T01:06:59.614Z,22.10
2022-08-23T01:09:27.518Z,21.86
2022-08-23T01:12:05.229Z,22.02
2022-08-23T01:14:41.758Z,21.87
2022-08-23T01:17:12.079Z,21.98
2022-08-23T01:19:52.044Z,22.11
2022-08-23T01:22:25.474Z,22.03
2022-08-23T01:25:07.481Z,21.87
2022-08-23T01:27:42.324Z,21.92
2022-08-23T01:30:16.391Z,21.99
2022-08-23T01:32:50.314Z,22.04
2022-08-23T01:37:53.684Z,22.00
2022-08-23T01:40:21.365Z,21.94
2022-08-23T01:42:49.664Z,21.96
2022-08-23T01:45:17.692Z,22.00
2022-08-23T01:47:45.708Z,22.08
2022-08-23T01:50:14.040Z,22.06
2022-08-23T01:52:46.468Z,22.14
2022-08-23T01:55:16.640Z,22.24
2022-08-23T01:57:49.343Z,22.30
2022-08-23T02:00:22.417Z,22.38
2022-08-23T02:02:50.003Z,22.44
2022-08-23T02:05:19.127Z,22.56
2022-08-23T02:07:48.677Z,22.74
2022-08-23T02:10:18.619Z,22.79
2022-08-23T02:12:46.971Z,22.87
2022-08-23T02:15:36.762Z,22.98
2022-08-23T02:18:04.288Z,22.91
2022-08-23T02:20:31.758Z,22.93
2022-08-23T02:23:00.245Z,23.05
2022-08-23T02:25:27.797Z,23.11
2022-08-23T02:27:55.323Z,23.30
2022-08-23T02:30:22.962Z,23.41
2022-08-23T02:32:51.331Z,23.55
2022-08-23T02:35:19.595Z,23.99
2022-08-23T02:37:47.102Z,24.66
2022-08-23T02:40:14.775Z,25.36
2022-08-23T02:42:42.403Z,25.99
2022-08-23T02:45:10.229Z,26.62
2022-08-23T02:47:45.419Z,27.20
2022-08-23T02:50:22.092Z,27.75
2022-08-23T02:52:49.848Z,28.28
2022-08-23T02:55:17.662Z,28.84
2022-08-23T02:57:45.193Z,29.41
2022-08-23T03:00:16.049Z,29.87
2022-08-23T03:02:44.059Z,30.23
2022-08-23T03:05:13.929Z,30.71
2022-08-23T03:07:41.890Z,31.20
2022-08-23T03:10:10.744Z,31.62
2022-08-23T03:12:42.354Z,32.00
2022-08-23T03:15:11.922Z,32.20
2022-08-23T03:17:40.239Z,32.32
2022-08-23T03:20:10.657Z,32.75
2022-08-23T03:22:38.156Z,33.11
2022-08-23T03:25:07.007Z,33.16
2022-08-23T03:27:49.587Z,33.31
2022-08-23T03:30:19.973Z,33.78
2022-08-23T03:32:55.714Z,34.24
2022-08-23T03:35:23.671Z,34.56
2022-08-23T03:37:55.356Z,35.02
2022-08-23T03:40:24.546Z,35.27
2022-08-23T03:42:52.712Z,35.59
2022-08-23T03:45:23.675Z,35.92
2022-08-23T03:47:52.367Z,36.25
2022-08-23T03:50:20.687Z,36.58
2022-08-23T03:52:48.478Z,36.95
2022-08-23T03:55:16.904Z,37.24
2022-08-23T03:57:49.337Z,36.78
2022-08-23T04:00:20.281Z,37.73
2022-08-23T04:02:51.104Z,38.05
2022-08-23T04:05:19.558Z,38.26
2022-08-23T04:08:12.884Z,38.37
2022-08-23T04:10:42.353Z,38.96
2022-08-23T04:13:10.724Z,39.27
2022-08-23T04:15:38.693Z,39.56
2022-08-23T04:18:09.277Z,39.80
2022-08-23T04:20:38.281Z,40.13
2022-08-23T04:23:06.436Z,40.16
2022-08-23T04:25:45.602Z,40.33
2022-08-23T04:28:13.752Z,40.48
2022-08-23T04:30:41.219Z,40.70
2022-08-23T04:33:12.468Z,40.94
2022-08-23T04:35:41.813Z,41.03
2022-08-23T04:38:24.751Z,41.25
2022-08-23T04:41:15.498Z,41.15
2022-08-23T04:43:45.779Z,41.23
2022-08-23T04:46:15.745Z,41.51
2022-08-23T04:48:46.778Z,41.81
2022-08-23T04:51:15.834Z,42.03
2022-08-23T04:53:44.411Z,42.27
2022-08-23T04:56:30.818Z,42.48
2022-08-23T04:58:58.435Z,42.66
2022-08-23T05:01:26.937Z,43.12
2022-08-23T05:03:55.692Z,43.31
2022-08-23T05:06:25.477Z,43.42
2022-08-23T05:08:53.808Z,43.68
2022-08-23T05:11:22.008Z,43.94
2022-08-23T05:13:50.733Z,44.27
2022-08-23T05:16:18.344Z,44.47
2022-08-23T05:18:54.729Z,44.75
2022-08-23T05:21:24.593Z,44.99
2022-08-23T05:23:54.672Z,45.11
2022-08-23T05:26:25.482Z,45.14
2022-08-23T05:28:52.980Z,45.27
2022-08-23T05:31:27.969Z,45.28
2022-08-23T05:33:59.852Z,45.48
2022-08-23T05:36:34.897Z,45.71
2022-08-23T05:39:02.387Z,45.90
2022-08-23T05:41:38.075Z,46.10
2022-08-23T05:44:10.724Z,46.27
2022-08-23T05:46:43.498Z,46.54
2022-08-23T05:49:21.805Z,46.52
2022-08-23T05:51:51.615Z,46.64
2022-08-23T05:54:21.649Z,46.80
2022-08-23T05:57:04.895Z,46.95
2022-08-23T05:59:32.512Z,47.10
2022-08-23T06:01:59.978Z,47.30
2022-08-23T06:04:27.998Z,47.40
2022-08-23T06:06:59.009Z,47.47
2022-08-23T06:09:26.892Z,47.59
2022-08-23T06:11:54.853Z,47.78
2022-08-23T06:14:22.431Z,47.97
2022-08-23T06:16:55.826Z,48.01
2022-08-23T06:19:26.520Z,48.16
2022-08-23T06:22:12.979Z,48.27
2022-08-23T06:24:43.124Z,48.39
2022-08-23T06:27:16.391Z,48.45
2022-08-23T06:29:44.114Z,48.60
2022-08-23T06:32:31.769Z,48.60
2022-08-23T06:35:33.285Z,48.69
2022-08-23T06:38:11.511Z,48.77
2022-08-23T06:40:47.671Z,49.00
2022-08-23T06:43:27.890Z,49.12
2022-08-23T06:46:20.278Z,49.25
2022-08-23T06:48:53.390Z,49.50
2022-08-23T06:51:29.440Z,49.47
2022-08-23T06:54:16.972Z,49.68
2022-08-23T06:56:52.006Z,49.77
2022-08-23T06:59:23.435Z,49.93
2022-08-23T07:02:04.565Z,49.94
2022-08-23T07:04:54.361Z,50.06
2022-08-23T07:07:45.083Z,50.13
2022-08-23T07:10:15.855Z,50.29
2022-08-23T07:12:44.620Z,50.37
2022-08-23T07:15:14.123Z,50.27
2022-08-23T07:17:44.888Z,50.25
2022-08-23T07:20:13.163Z,50.26
2022-08-23T07:22:44.775Z,50.11
2022-08-23T07:25:13.331Z,49.95
2022-08-23T07:27:43.922Z,49.83
2022-08-23T07:30:13.669Z,49.60
2022-08-23T07:32:41.365Z,49.31
2022-08-23T07:35:31.392Z,48.86
2022-08-23T07:38:00.157Z,48.38
2022-08-23T07:40:36.833Z,47.93
2022-08-23T07:43:07.067Z,47.46
2022-08-23T07:45:37.177Z,47.06
2022-08-23T07:48:05.544Z,46.65
2022-08-23T07:50:49.943Z,46.34
2022-08-23T07:53:27.556Z,45.96
2022-08-23T07:56:07.949Z,45.74
2022-08-23T07:58:53.834Z,45.40
2022-08-23T08:01:43.739Z,45.26
2022-08-23T08:04:12.690Z,44.85
2022-08-23T08:07:00.202Z,44.86
2022-08-23T08:09:39.350Z,44.46
2022-08-23T08:12:07.080Z,44.21
2022-08-23T08:14:37.360Z,44.06
2022-08-23T08:17:05.332Z,43.88
2022-08-23T08:19:58.903Z,43.77
2022-08-23T08:23:00.434Z,43.74
2022-08-23T08:25:28.870Z,43.59
2022-08-23T08:27:58.733Z,43.44
2022-08-23T08:30:26.394Z,43.23
2022-08-23T08:32:54.083Z,43.09
2022-08-23T08:35:22.659Z,42.95
2022-08-23T08:37:50.851Z,42.85
2022-08-23T08:40:40.651Z,43.25
2022-08-23T08:43:39.967Z,43.07
2022-08-23T08:46:39.394Z,42.95
2022-08-23T08:49:10.457Z,42.06
2022-08-23T08:51:45.214Z,41.96
2022-08-23T08:54:17.730Z,41.55
2022-08-23T08:56:52.951Z,41.50
2022-08-23T08:59:28.353Z,41.14
2022-08-23T09:01:58.071Z,40.77
2022-08-23T09:04:32.805Z,40.56
2022-08-23T09:07:16.596Z,40.67
2022-08-23T09:09:48.543Z,40.39
2022-08-23T09:12:43.089Z,40.50
2022-08-23T09:15:21.035Z,39.93
2022-08-23T09:17:54.906Z,39.66
2022-08-23T09:20:32.824Z,39.51
2022-08-23T09:23:07.794Z,39.43
2022-08-23T09:25:37.765Z,38.92
2022-08-23T09:28:16.210Z,38.80
2022-08-23T09:30:56.707Z,38.84
2022-08-23T09:33:37.112Z,38.26
2022-08-23T09:36:17.174Z,38.32
2022-08-23T09:38:57.341Z,38.04
2022-08-23T09:41:32.990Z,37.79
2022-08-23T09:44:02.653Z,37.51
2022-08-23T09:46:33.976Z,37.45
2022-08-23T09:49:24.125Z,37.72
2022-08-23T09:51:56.143Z,37.10
2022-08-23T09:54:35.378Z,37.15
2022-08-23T09:57:13.984Z,36.80
2022-08-23T09:59:45.293Z,36.62
2022-08-23T10:02:28.698Z,36.65
2022-08-23T10:05:21.285Z,36.65
2022-08-23T10:08:10.786Z,36.57
2022-08-23T10:10:50.728Z,36.17
2022-08-23T10:13:22.167Z,35.78
2022-08-23T10:16:15.928Z,35.79
2022-08-23T10:19:14.343Z,35.55
2022-08-23T10:21:49.232Z,35.40
2022-08-23T10:24:29.328Z,35.53
2022-08-23T10:27:44.667Z,35.16
2022-08-23T10:30:18.454Z,35.16
2022-08-23T10:32:53.709Z,35.08
2022-08-23T10:35:43.167Z,35.16
2022-08-23T10:38:23.036Z,34.97
2022-08-23T10:41:23.398Z,34.83
2022-08-23T10:43:59.491Z,34.67
2022-08-23T10:46:30.861Z,34.56
2022-08-23T10:49:01.653Z,34.40
2022-08-23T10:51:40.382Z,34.54
2022-08-23T10:54:12.840Z,34.32
2022-08-23T10:56:50.263Z,34.15
2022-08-23T10:59:25.788Z,34.30
2022-08-23T11:02:42.948Z,34.46
2022-08-23T11:05:28.169Z,34.07
2022-08-23T11:08:30.695Z,34.23
2022-08-23T11:11:00.006Z,33.80
2022-08-23T11:13:35.332Z,33.68
2022-08-23T11:16:23.783Z,33.71
2022-08-23T11:18:51.824Z,33.54
2022-08-23T11:21:33.549Z,33.45
2022-08-23T11:24:06.376Z,33.36
2022-08-23T11:26:38.391Z,33.40
2022-08-23T11:29:07.000Z,33.22
2022-08-23T11:31:51.355Z,33.25
2022-08-23T11:34:29.439Z,33.11
2022-08-23T11:37:20.559Z,33.33
2022-08-23T11:40:00.745Z,32.93
2022-08-23T11:42:40.595Z,33.05
2022-08-23T11:45:47.746Z,33.20
2022-08-23T11:48:43.444Z,32.91
2022-08-23T11:51:20.462Z,32.90
2022-08-23T11:53:53.668Z,32.82
2022-08-23T11:56:40.671Z,32.71
2022-08-23T11:59:26.547Z,32.43
2022-08-23T12:01:54.788Z,32.36
2022-08-23T12:04:38.901Z,32.60
2022-08-23T12:07:13.148Z,32.19
2022-08-23T12:09:40.586Z,32.19
2022-08-23T12:12:34.812Z,32.35
2022-08-23T12:15:12.026Z,32.27
2022-08-23T12:17:42.522Z,32.20
2022-08-23T12:20:24.304Z,32.22
2022-08-23T12:23:16.242Z,32.23
2022-08-23T12:25:44.203Z,31.98
2022-08-23T12:28:50.075Z,31.88
2022-08-23T12:31:37.880Z,32.16
2022-08-23T12:34:08.372Z,31.74
2022-08-23T12:36:58.358Z,32.00
2022-08-23T12:39:47.328Z,31.90
2022-08-23T12:42:24.955Z,31.68
2022-08-23T12:45:23.813Z,31.88
2022-08-23T12:48:00.296Z,31.64
2022-08-23T12:50:33.861Z,31.43
2022-08-23T12:53:08.085Z,31.47
2022-08-23T12:55:40.909Z,31.33
2022-08-23T12:58:08.852Z,31.87
2022-08-23T13:00:50.792Z,31.48
2022-08-23T13:03:28.912Z,31.34
2022-08-23T13:06:03.802Z,31.23
2022-08-23T13:08:40.899Z,31.35
2022-08-23T13:11:10.322Z,31.01
2022-08-23T13:13:40.463Z,31.08
2022-08-23T13:16:45.168Z,31.38
2022-08-23T13:19:18.084Z,31.05
2022-08-23T13:21:46.077Z,30.85
2022-08-23T13:24:37.846Z,31.18
2022-08-23T13:27:34.022Z,31.11
2022-08-23T13:30:08.557Z,30.72
2022-08-23T13:32:43.810Z,30.78
2022-08-23T13:35:47.107Z,30.90
2022-08-23T13:38:20.943Z,30.60
2022-08-23T13:40:48.841Z,31.20
2022-08-23T13:43:31.791Z,30.71
2022-08-23T13:46:28.645Z,30.76
2022-08-23T13:49:02.737Z,30.53
2022-08-23T13:51:33.465Z,30.34
2022-08-23T13:54:08.126Z,30.37
2022-08-23T13:56:40.931Z,30.19
2022-08-23T13:59:22.868Z,30.33
2022-08-23T14:01:53.747Z,30.03
2022-08-23T14:04:21.399Z,29.89
2022-08-23T14:06:49.214Z,29.84
2022-08-23T14:09:17.500Z,29.71
2022-08-23T14:11:46.185Z,29.68
2022-08-23T14:14:13.875Z,29.61
2022-08-23T14:16:41.806Z,29.54
2022-08-23T14:20:31.415Z,29.55
2022-08-23T14:22:00.392Z,29.47
2022-08-23T14:24:28.532Z,29.41
2022-08-23T14:26:57.545Z,29.36
2022-08-23T14:29:28.299Z,29.33
2022-08-23T14:31:59.376Z,29.26
2022-08-23T14:34:28.950Z,29.20
2022-08-23T14:39:45.621Z,29.03
2022-08-23T14:42:16.682Z,28.98
2022-08-23T14:44:44.186Z,28.92
2022-08-23T14:47:11.686Z,28.85
2022-08-23T14:49:39.351Z,28.78
2022-08-23T14:52:07.263Z,28.65
2022-08-23T14:54:35.282Z,28.56
2022-08-23T14:57:02.901Z,28.50
2022-08-23T14:59:30.318Z,28.46
2022-08-23T15:01:58.425Z,28.39
2022-08-23T15:04:34.198Z,28.33
2022-08-23T15:07:17.692Z,28.26
2022-08-23T15:09:55.023Z,28.15
2022-08-23T15:15:14.412Z,28.07
2022-08-23T15:17:52.462Z,28.14
2022-08-23T15:20:22.028Z,27.91
2022-08-23T15:23:05.304Z,27.77
2022-08-23T15:25:35.734Z,27.73
2022-08-23T15:28:04.116Z,27.64
2022-08-23T15:30:33.881Z,27.56
2022-08-23T15:33:01.814Z,27.52
2022-08-23T15:35:31.460Z,27.46
2022-08-23T15:37:59.334Z,27.38
2022-08-23T15:40:26.823Z,27.29
2022-08-23T15:42:54.491Z,27.22
2022-08-23T15:45:22.015Z,27.16
2022-08-23T15:47:51.541Z,27.11
2022-08-23T15:50:22.094Z,27.08
2022-08-23T15:52:49.962Z,26.93
2022-08-23T15:55:17.947Z,26.91
2022-08-23T15:57:51.839Z,26.89
2022-08-23T16:00:22.544Z,26.89
2022-08-23T16:03:19.397Z,26.80
2022-08-23T16:05:41.347Z,26.79
2022-08-23T16:08:13.563Z,26.73
2022-08-23T16:10:41.127Z,26.70
2022-08-23T16:13:08.666Z,26.59
2022-08-23T16:15:37.764Z,26.54
2022-08-23T16:18:05.460Z,26.44
2022-08-23T16:20:33.123Z,26.36
2022-08-23T16:23:00.698Z,26.28
2022-08-23T16:25:28.527Z,26.20
2022-08-23T16:27:56.362Z,26.15
2022-08-23T16:30:24.570Z,26.09
2022-08-23T16:32:51.997Z,26.03
2022-08-23T16:35:19.655Z,25.97
2022-08-23T16:37:47.226Z,25.94
2022-08-23T16:40:15.188Z,25.92
2022-08-23T16:42:42.844Z,25.89
2022-08-23T16:45:10.983Z,25.85
2022-08-23T16:47:41.900Z,25.91
2022-08-23T16:50:13.519Z,25.82
2022-08-23T16:52:41.340Z,25.72
2022-08-23T16:55:11.473Z,25.75
2022-08-23T16:57:40.691Z,25.67
2022-08-23T17:00:14.294Z,25.59
2022-08-23T17:02:44.171Z,25.61
2022-08-23T17:05:16.658Z,25.62
2022-08-23T17:07:44.313Z,25.54
2022-08-23T17:10:14.174Z,25.53
2022-08-23T17:12:46.876Z,25.50
2022-08-23T17:15:20.508Z,25.56
2022-08-23T17:17:49.059Z,25.37
2022-08-23T17:20:17.667Z,25.37
2022-08-23T17:22:45.634Z,25.36
2022-08-23T17:25:15.716Z,25.29
2022-08-23T17:27:46.383Z,25.29
2022-08-23T17:30:17.132Z,25.27
2022-08-23T17:32:47.931Z,25.23
2022-08-23T17:35:18.932Z,25.21
2022-08-23T17:37:47.109Z,25.21
2022-08-23T17:40:21.171Z,25.33
2022-08-23T17:42:50.092Z,25.22
2022-08-23T17:45:18.625Z,25.17
2022-08-23T17:47:46.423Z,25.14
2022-08-23T17:50:15.433Z,25.11
2022-08-23T17:52:42.876Z,25.06
2022-08-23T17:55:10.824Z,25.06
2022-08-23T17:57:39.017Z,25.05
2022-08-23T18:00:10.226Z,25.04
2022-08-23T18:02:38.432Z,25.03
2022-08-23T18:05:08.925Z,25.09
2022-08-23T18:07:37.159Z,24.95
2022-08-23T18:10:06.835Z,24.97
2022-08-23T18:12:34.926Z,24.92
2022-08-23T18:15:05.091Z,24.90
2022-08-23T18:17:33.755Z,24.94
2022-08-23T18:20:01.281Z,24.92
2022-08-23T18:22:30.815Z,24.89
2022-08-23T18:24:58.400Z,24.85
2022-08-23T18:27:44.252Z,24.82
2022-08-23T18:30:12.490Z,24.77
2022-08-23T18:32:39.950Z,24.75
2022-08-23T18:35:09.298Z,24.82
2022-08-23T18:37:37.041Z,24.71
2022-08-23T18:40:09.546Z,24.71
2022-08-23T18:42:39.712Z,24.69
2022-08-23T18:45:08.275Z,24.63
2022-08-23T18:47:38.537Z,24.61
2022-08-23T18:50:09.264Z,24.65
2022-08-23T18:52:37.706Z,24.57
2022-08-23T18:55:06.243Z,24.57
2022-08-23T18:57:33.730Z,24.57
2022-08-23T19:00:01.245Z,24.58
2022-08-23T19:02:30.545Z,24.59
2022-08-23T19:04:58.024Z,24.60
2022-08-23T19:07:26.335Z,24.60
2022-08-23T19:09:53.863Z,24.52
2022-08-23T19:12:21.315Z,24.54
2022-08-23T19:14:49.161Z,24.55
2022-08-23T19:17:16.865Z,24.56
2022-08-23T19:19:44.419Z,24.51
2022-08-23T19:22:12.924Z,24.50
2022-08-23T19:24:40.910Z,24.49
2022-08-23T19:27:09.286Z,24.44
2022-08-23T19:29:36.923Z,24.46
2022-08-23T19:32:04.793Z,24.42
2022-08-23T19:34:32.385Z,24.38
2022-08-23T19:37:01.507Z,24.36
2022-08-23T19:39:30.175Z,24.39
2022-08-23T19:41:58.264Z,24.34
2022-08-23T19:44:25.816Z,24.32
2022-08-23T19:46:55.703Z,24.35
2022-08-23T19:49:23.626Z,24.25
2022-08-23T19:51:51.094Z,24.16
2022-08-23T19:54:18.748Z,24.16
2022-08-23T19:56:49.474Z,24.25
2022-08-23T19:59:23.467Z,24.36
2022-08-23T20:01:53.201Z,24.28
2022-08-23T20:04:22.541Z,24.26
2022-08-23T20:06:51.481Z,24.21
2022-08-23T20:09:20.539Z,24.20
2022-08-23T20:11:49.229Z,24.19
2022-08-23T20:14:16.767Z,24.14
2022-08-23T20:16:44.253Z,24.12
2022-08-23T20:19:12.705Z,24.15
2022-08-23T20:21:41.527Z,24.12
2022-08-23T20:24:14.370Z,24.22
2022-08-23T20:26:45.430Z,24.14
2022-08-23T20:29:21.320Z,24.25
2022-08-23T20:32:00.468Z,24.21
2022-08-23T20:34:30.830Z,23.98
2022-08-23T20:36:58.246Z,23.94
2022-08-23T20:39:26.280Z,23.90
2022-08-23T20:41:54.753Z,23.89
2022-08-23T20:44:25.839Z,23.82
2022-08-23T20:46:56.776Z,23.75
2022-08-23T20:49:27.189Z,23.79
2022-08-23T20:51:54.670Z,23.73
2022-08-23T20:54:23.054Z,23.70
2022-08-23T20:56:51.873Z,23.68
2022-08-23T20:59:19.987Z,23.62
2022-08-23T21:01:47.847Z,23.62
2022-08-23T21:04:15.726Z,23.57
2022-08-23T21:06:49.214Z,23.64
2022-08-23T21:09:20.206Z,23.67
2022-08-23T21:11:50.270Z,23.57
2022-08-23T21:14:19.880Z,23.63
2022-08-23T21:16:48.124Z,23.60
2022-08-23T21:19:16.205Z,23.58
2022-08-23T21:21:44.009Z,23.53
2022-08-23T21:24:12.086Z,23.52
2022-08-23T21:26:40.532Z,23.52
2022-08-23T21:29:09.144Z,23.50
2022-08-23T21:31:37.213Z,23.46
2022-08-23T21:34:10.437Z,23.40
2022-08-23T21:36:38.270Z,23.37
2022-08-23T21:39:06.381Z,23.37
2022-08-23T21:41:43.722Z,23.54
2022-08-23T21:44:14.345Z,23.38
2022-08-23T21:46:42.358Z,23.35
2022-08-23T21:49:12.258Z,23.29
2022-08-23T21:51:42.033Z,23.25
2022-08-23T21:54:11.970Z,23.23
2022-08-23T21:56:40.554Z,23.19
2022-08-23T21:59:11.828Z,23.22
2022-08-23T22:01:39.920Z,23.13
2022-08-23T22:04:09.421Z,23.14
2022-08-23T22:06:38.498Z,23.01
2022-08-23T22:09:13.393Z,23.14
2022-08-23T22:11:43.838Z,23.02
2022-08-23T22:14:17.750Z,23.09
2022-08-23T22:16:45.252Z,22.92
2022-08-23T22:19:15.455Z,22.92
2022-08-23T22:21:44.959Z,22.90
2022-08-23T22:24:13.518Z,22.81
2022-08-23T22:26:42.800Z,22.78
2022-08-23T22:29:11.698Z,22.73
2022-08-23T22:31:40.106Z,22.67
2022-08-23T22:34:10.223Z,22.65
2022-08-23T22:36:37.832Z,22.62
2022-08-23T22:39:06.293Z,22.62
2022-08-23T22:41:34.516Z,22.61
2022-08-23T22:44:03.781Z,22.57
2022-08-23T22:46:33.864Z,22.54
2022-08-23T22:49:02.050Z,22.50
2022-08-23T22:51:33.134Z,22.61
2022-08-23T22:54:05.142Z,22.51
2022-08-23T22:56:38.270Z,22.49
2022-08-23T22:59:07.408Z,22.45
2022-08-23T23:01:38.430Z,22.48
2022-08-23T23:04:08.330Z,22.40
2022-08-23T23:06:36.708Z,22.34
2022-08-23T23:09:06.857Z,22.34
2022-08-23T23:11:35.899Z,22.25
2022-08-23T23:14:05.454Z,22.24
2022-08-23T23:16:34.312Z,22.21
2022-08-23T23:19:37.590Z,22.19
2022-08-23T23:22:07.509Z,22.19
2022-08-23T23:24:38.493Z,22.20
2022-08-23T23:27:06.476Z,22.08
2022-08-23T23:29:34.477Z,22.11
2022-08-23T23:32:02.328Z,22.05
2022-08-23T23:34:30.017Z,22.03
2022-08-23T23:36:58.384Z,22.02
2022-08-23T23:39:27.685Z,22.01
2022-08-23T23:41:55.892Z,21.94
2022-08-23T23:44:30.934Z,22.00
2022-08-23T23:47:01.641Z,21.98
2022-08-23T23:49:32.093Z,21.95
2022-08-23T23:52:00.707Z,21.93
2022-08-23T23:54:28.265Z,21.89
2022-08-23T23:56:55.964Z,21.88
2022-08-23T23:59:23.482Z,21.82
